sensor_id;sensor_type;location;lat;lon;timestamp;temperature;humidity
52565;DHT22;38460;53.106;7.004;2023-05-07T00:00:20;11.50;99.90
52565;DHT22;38460;53.106;7.004;2023-05-07T00:02:46;11.50;99.90
52565;DHT22;38460;53.106;7.004;2023-05-07T00:05:12;11.50;99.90
52565;DHT22;38460;53.106;7.004;2023-05-07T00:07:38;11.50;99.90
52565;DHT22;38460;53.106;7.004;2023-05-07T00:10:05;11.40;99.90
52565;DHT22;38460;53.106;7.004;2023-05-07T00:12:32;11.50;99.90
52565;DHT22;38460;53.106;7.004;2023-05-07T00:15:04;11.40;99.90
52565;DHT22;38460;53.106;7.004;2023-05-07T00:17:31;11.40;99.90
52565;DHT22;38460;53.106;7.004;2023-05-07T00:19:56;11.40;99.90
52565;DHT22;38460;53.106;7.004;2023-05-07T00:22:22;11.40;99.90
52565;DHT22;38460;53.106;7.004;2023-05-07T00:24:48;11.40;99.90
52565;DHT22;38460;53.106;7.004;2023-05-07T00:27:14;11.40;99.90
52565;DHT22;38460;53.106;7.004;2023-05-07T00:29:39;11.40;99.90
52565;DHT22;38460;53.106;7.004;2023-05-07T00:32:05;11.40;99.90
52565;DHT22;38460;53.106;7.004;2023-05-07T00:34:31;11.30;99.90
52565;DHT22;38460;53.106;7.004;2023-05-07T00:36:56;11.30;99.90
52565;DHT22;38460;53.106;7.004;2023-05-07T00:39:22;11.30;99.90
52565;DHT22;38460;53.106;7.004;2023-05-07T00:41:48;11.30;99.90
52565;DHT22;38460;53.106;7.004;2023-05-07T00:44:14;11.30;99.90
52565;DHT22;38460;53.106;7.004;2023-05-07T00:46:40;11.30;99.90
52565;DHT22;38460;53.106;7.004;2023-05-07T00:49:06;11.30;99.90
52565;DHT22;38460;53.106;7.004;2023-05-07T00:51:32;11.30;99.90
52565;DHT22;38460;53.106;7.004;2023-05-07T00:53:59;11.30;99.90
52565;DHT22;38460;53.106;7.004;2023-05-07T00:56:26;11.30;99.90
52565;DHT22;38460;53.106;7.004;2023-05-07T00:58:52;11.30;99.90
52565;DHT22;38460;53.106;7.004;2023-05-07T01:01:18;11.20;99.90
52565;DHT22;38460;53.106;7.004;2023-05-07T01:03:44;11.20;99.90
52565;DHT22;38460;53.106;7.004;2023-05-07T01:06:10;11.20;99.90
52565;DHT22;38460;53.106;7.004;2023-05-07T01:08:39;11.20;99.90
52565;DHT22;38460;53.106;7.004;2023-05-07T01:11:06;11.20;99.90
52565;DHT22;38460;53.106;7.004;2023-05-07T01:13:33;11.20;99.90
52565;DHT22;38460;53.106;7.004;2023-05-07T01:15:59;11.20;99.90
52565;DHT22;38460;53.106;7.004;2023-05-07T01:18:25;11.20;99.90
52565;DHT22;38460;53.106;7.004;2023-05-07T01:20:52;11.20;99.90
52565;DHT22;38460;53.106;7.004;2023-05-07T01:23:18;11.20;99.90
52565;DHT22;38460;53.106;7.004;2023-05-07T01:25:53;11.20;99.90
52565;DHT22;38460;53.106;7.004;2023-05-07T01:28:19;11.10;99.90
52565;DHT22;38460;53.106;7.004;2023-05-07T01:30:54;11.10;99.90
52565;DHT22;38460;53.106;7.004;2023-05-07T01:33:21;11.10;99.90
52565;DHT22;38460;53.106;7.004;2023-05-07T01:35:50;11.10;99.90
52565;DHT22;38460;53.106;7.004;2023-05-07T01:38:18;11.10;99.90
52565;DHT22;38460;53.106;7.004;2023-05-07T01:40:44;11.10;99.90
52565;DHT22;38460;53.106;7.004;2023-05-07T01:43:10;11.10;99.90
52565;DHT22;38460;53.106;7.004;2023-05-07T01:45:36;11.10;99.90
52565;DHT22;38460;53.106;7.004;2023-05-07T01:48:02;11.10;99.90
52565;DHT22;38460;53.106;7.004;2023-05-07T01:50:30;11.10;99.90
52565;DHT22;38460;53.106;7.004;2023-05-07T01:52:56;11.10;99.90
52565;DHT22;38460;53.106;7.004;2023-05-07T01:55:22;11.00;99.90
52565;DHT22;38460;53.106;7.004;2023-05-07T01:57:48;11.00;99.90
52565;DHT22;38460;53.106;7.004;2023-05-07T02:00:13;11.00;99.90
52565;DHT22;38460;53.106;7.004;2023-05-07T02:02:39;11.00;99.90
52565;DHT22;38460;53.106;7.004;2023-05-07T02:05:05;11.00;99.90
52565;DHT22;38460;53.106;7.004;2023-05-07T02:07:31;11.00;99.90
52565;DHT22;38460;53.106;7.004;2023-05-07T02:09:57;11.00;99.90
52565;DHT22;38460;53.106;7.004;2023-05-07T02:12:23;11.00;99.90
52565;DHT22;38460;53.106;7.004;2023-05-07T02:14:49;11.00;99.90
52565;DHT22;38460;53.106;7.004;2023-05-07T02:17:15;10.90;99.90
52565;DHT22;38460;53.106;7.004;2023-05-07T02:19:40;10.90;99.90
52565;DHT22;38460;53.106;7.004;2023-05-07T02:22:07;10.90;99.90
52565;DHT22;38460;53.106;7.004;2023-05-07T02:24:33;10.90;99.90
52565;DHT22;38460;53.106;7.004;2023-05-07T02:26:58;10.90;99.90
52565;DHT22;38460;53.106;7.004;2023-05-07T02:29:24;10.90;99.90
52565;DHT22;38460;53.106;7.004;2023-05-07T02:31:50;10.90;99.90
52565;DHT22;38460;53.106;7.004;2023-05-07T02:34:18;10.90;99.90
52565;DHT22;38460;53.106;7.004;2023-05-07T02:36:44;10.80;99.90
52565;DHT22;38460;53.106;7.004;2023-05-07T02:39:14;10.80;99.90
52565;DHT22;38460;53.106;7.004;2023-05-07T02:41:41;10.80;99.90
52565;DHT22;38460;53.106;7.004;2023-05-07T02:44:06;10.80;99.90
52565;DHT22;38460;53.106;7.004;2023-05-07T02:46:32;10.80;99.90
52565;DHT22;38460;53.106;7.004;2023-05-07T02:48:58;10.80;99.90
52565;DHT22;38460;53.106;7.004;2023-05-07T02:51:25;10.70;99.90
52565;DHT22;38460;53.106;7.004;2023-05-07T02:53:51;10.70;99.90
52565;DHT22;38460;53.106;7.004;2023-05-07T02:56:17;10.70;99.90
52565;DHT22;38460;53.106;7.004;2023-05-07T02:58:42;10.70;99.90
52565;DHT22;38460;53.106;7.004;2023-05-07T03:01:08;10.70;99.90
52565;DHT22;38460;53.106;7.004;2023-05-07T03:03:35;10.60;99.90
52565;DHT22;38460;53.106;7.004;2023-05-07T03:06:01;10.60;99.90
52565;DHT22;38460;53.106;7.004;2023-05-07T03:08:27;10.60;99.90
52565;DHT22;38460;53.106;7.004;2023-05-07T03:10:53;10.60;99.90
52565;DHT22;38460;53.106;7.004;2023-05-07T03:13:19;10.60;99.90
52565;DHT22;38460;53.106;7.004;2023-05-07T03:15:44;10.50;99.90
52565;DHT22;38460;53.106;7.004;2023-05-07T03:18:11;10.50;99.90
52565;DHT22;38460;53.106;7.004;2023-05-07T03:20:36;10.50;99.90
52565;DHT22;38460;53.106;7.004;2023-05-07T03:23:02;10.50;99.90
52565;DHT22;38460;53.106;7.004;2023-05-07T03:25:28;10.50;99.90
52565;DHT22;38460;53.106;7.004;2023-05-07T03:27:56;10.50;99.90
52565;DHT22;38460;53.106;7.004;2023-05-07T03:30:22;10.50;99.90
52565;DHT22;38460;53.106;7.004;2023-05-07T03:32:47;10.50;99.90
52565;DHT22;38460;53.106;7.004;2023-05-07T03:35:13;10.50;99.90
52565;DHT22;38460;53.106;7.004;2023-05-07T03:37:40;10.50;99.90
52565;DHT22;38460;53.106;7.004;2023-05-07T03:40:06;10.40;99.90
52565;DHT22;38460;53.106;7.004;2023-05-07T03:42:33;10.40;99.90
52565;DHT22;38460;53.106;7.004;2023-05-07T03:44:58;10.40;99.90
52565;DHT22;38460;53.106;7.004;2023-05-07T03:47:24;10.40;99.90
52565;DHT22;38460;53.106;7.004;2023-05-07T03:49:50;10.40;99.90
52565;DHT22;38460;53.106;7.004;2023-05-07T03:52:18;10.30;99.90
52565;DHT22;38460;53.106;7.004;2023-05-07T03:54:48;10.30;99.90
52565;DHT22;38460;53.106;7.004;2023-05-07T03:57:14;10.30;99.90
52565;DHT22;38460;53.106;7.004;2023-05-07T03:59:39;10.30;99.90
52565;DHT22;38460;53.106;7.004;2023-05-07T04:02:06;10.30;99.90
52565;DHT22;38460;53.106;7.004;2023-05-07T04:04:31;10.30;99.90
52565;DHT22;38460;53.106;7.004;2023-05-07T04:06:58;10.30;99.90
52565;DHT22;38460;53.106;7.004;2023-05-07T04:09:25;10.30;99.90
52565;DHT22;38460;53.106;7.004;2023-05-07T04:11:51;10.30;99.90
52565;DHT22;38460;53.106;7.004;2023-05-07T04:14:16;10.30;99.90
52565;DHT22;38460;53.106;7.004;2023-05-07T04:16:42;10.20;99.90
52565;DHT22;38460;53.106;7.004;2023-05-07T04:19:08;10.20;99.90
52565;DHT22;38460;53.106;7.004;2023-05-07T04:21:34;10.20;99.90
52565;DHT22;38460;53.106;7.004;2023-05-07T04:23:59;10.20;99.90
52565;DHT22;38460;53.106;7.004;2023-05-07T04:26:25;10.20;99.90
52565;DHT22;38460;53.106;7.004;2023-05-07T04:28:51;10.20;99.90
52565;DHT22;38460;53.106;7.004;2023-05-07T04:31:17;10.20;99.90
52565;DHT22;38460;53.106;7.004;2023-05-07T04:33:43;10.20;99.90
52565;DHT22;38460;53.106;7.004;2023-05-07T04:36:08;10.20;99.90
52565;DHT22;38460;53.106;7.004;2023-05-07T04:38:34;10.20;99.90
52565;DHT22;38460;53.106;7.004;2023-05-07T04:41:04;10.20;99.90
52565;DHT22;38460;53.106;7.004;2023-05-07T04:43:30;10.20;99.90
52565;DHT22;38460;53.106;7.004;2023-05-07T04:45:56;10.20;99.90
52565;DHT22;38460;53.106;7.004;2023-05-07T04:48:22;10.20;99.90
52565;DHT22;38460;53.106;7.004;2023-05-07T04:50:48;10.20;99.90
52565;DHT22;38460;53.106;7.004;2023-05-07T04:53:14;10.20;99.90
52565;DHT22;38460;53.106;7.004;2023-05-07T04:55:40;10.20;99.90
52565;DHT22;38460;53.106;7.004;2023-05-07T04:58:06;10.20;99.90
52565;DHT22;38460;53.106;7.004;2023-05-07T05:00:34;10.20;99.90
52565;DHT22;38460;53.106;7.004;2023-05-07T05:03:00;10.20;99.90
52565;DHT22;38460;53.106;7.004;2023-05-07T05:05:26;10.20;99.90
52565;DHT22;38460;53.106;7.004;2023-05-07T05:07:51;10.20;99.90
52565;DHT22;38460;53.106;7.004;2023-05-07T05:10:17;10.10;99.90
52565;DHT22;38460;53.106;7.004;2023-05-07T05:12:43;10.20;99.90
52565;DHT22;38460;53.106;7.004;2023-05-07T05:15:11;10.20;99.90
52565;DHT22;38460;53.106;7.004;2023-05-07T05:17:37;10.20;99.90
52565;DHT22;38460;53.106;7.004;2023-05-07T05:20:03;10.20;99.90
52565;DHT22;38460;53.106;7.004;2023-05-07T05:22:29;10.10;99.90
52565;DHT22;38460;53.106;7.004;2023-05-07T05:24:56;10.20;99.90
52565;DHT22;38460;53.106;7.004;2023-05-07T05:27:22;10.20;99.90
52565;DHT22;38460;53.106;7.004;2023-05-07T05:29:48;10.20;99.90
52565;DHT22;38460;53.106;7.004;2023-05-07T05:32:14;10.20;99.90
52565;DHT22;38460;53.106;7.004;2023-05-07T05:34:39;10.20;99.90
52565;DHT22;38460;53.106;7.004;2023-05-07T05:37:05;10.10;99.90
52565;DHT22;38460;53.106;7.004;2023-05-07T05:39:31;10.20;99.90
52565;DHT22;38460;53.106;7.004;2023-05-07T05:41:57;10.10;99.90
52565;DHT22;38460;53.106;7.004;2023-05-07T05:44:22;10.20;99.90
52565;DHT22;38460;53.106;7.004;2023-05-07T05:46:48;10.20;99.90
52565;DHT22;38460;53.106;7.004;2023-05-07T05:49:15;10.20;99.90
52565;DHT22;38460;53.106;7.004;2023-05-07T05:51:41;10.20;99.90
52565;DHT22;38460;53.106;7.004;2023-05-07T05:54:07;10.20;99.90
52565;DHT22;38460;53.106;7.004;2023-05-07T05:56:33;10.20;99.90
52565;DHT22;38460;53.106;7.004;2023-05-07T05:58:58;10.20;99.90
52565;DHT22;38460;53.106;7.004;2023-05-07T06:01:25;10.20;99.90
52565;DHT22;38460;53.106;7.004;2023-05-07T06:03:50;10.20;99.90
52565;DHT22;38460;53.106;7.004;2023-05-07T06:06:16;10.20;99.90
52565;DHT22;38460;53.106;7.004;2023-05-07T06:08:42;10.20;99.90
52565;DHT22;38460;53.106;7.004;2023-05-07T06:11:08;10.30;99.90
52565;DHT22;38460;53.106;7.004;2023-05-07T06:13:33;10.20;99.90
52565;DHT22;38460;53.106;7.004;2023-05-07T06:15:59;10.20;99.90
52565;DHT22;38460;53.106;7.004;2023-05-07T06:18:25;10.20;99.90
52565;DHT22;38460;53.106;7.004;2023-05-07T06:20:52;10.30;99.90
52565;DHT22;38460;53.106;7.004;2023-05-07T06:23:17;10.30;99.90
52565;DHT22;38460;53.106;7.004;2023-05-07T06:25:51;10.30;99.90
52565;DHT22;38460;53.106;7.004;2023-05-07T06:28:17;10.30;99.90
52565;DHT22;38460;53.106;7.004;2023-05-07T06:30:43;10.30;99.90
52565;DHT22;38460;53.106;7.004;2023-05-07T06:33:09;10.30;99.90
52565;DHT22;38460;53.106;7.004;2023-05-07T06:35:35;10.30;99.90
52565;DHT22;38460;53.106;7.004;2023-05-07T06:38:01;10.30;99.90
52565;DHT22;38460;53.106;7.004;2023-05-07T06:40:27;10.30;99.90
52565;DHT22;38460;53.106;7.004;2023-05-07T06:42:53;10.30;99.90
52565;DHT22;38460;53.106;7.004;2023-05-07T06:45:19;10.40;99.90
52565;DHT22;38460;53.106;7.004;2023-05-07T06:47:45;10.40;99.90
52565;DHT22;38460;53.106;7.004;2023-05-07T06:50:11;10.40;99.90
52565;DHT22;38460;53.106;7.004;2023-05-07T06:52:37;10.40;99.90
52565;DHT22;38460;53.106;7.004;2023-05-07T06:55:03;10.40;99.90
52565;DHT22;38460;53.106;7.004;2023-05-07T06:57:29;10.40;99.90
52565;DHT22;38460;53.106;7.004;2023-05-07T06:59:54;10.50;99.90
52565;DHT22;38460;53.106;7.004;2023-05-07T07:02:20;10.50;99.90
52565;DHT22;38460;53.106;7.004;2023-05-07T07:04:46;10.50;99.90
52565;DHT22;38460;53.106;7.004;2023-05-07T07:07:12;10.50;99.90
52565;DHT22;38460;53.106;7.004;2023-05-07T07:09:37;10.50;99.90
52565;DHT22;38460;53.106;7.004;2023-05-07T07:12:03;10.50;99.90
52565;DHT22;38460;53.106;7.004;2023-05-07T07:14:29;10.50;99.90
52565;DHT22;38460;53.106;7.004;2023-05-07T07:16:55;10.60;99.90
52565;DHT22;38460;53.106;7.004;2023-05-07T07:19:20;10.60;99.90
52565;DHT22;38460;53.106;7.004;2023-05-07T07:21:46;10.60;99.90
52565;DHT22;38460;53.106;7.004;2023-05-07T07:24:13;10.60;99.90
52565;DHT22;38460;53.106;7.004;2023-05-07T07:26:44;10.70;99.90
52565;DHT22;38460;53.106;7.004;2023-05-07T07:29:10;10.70;99.90
52565;DHT22;38460;53.106;7.004;2023-05-07T07:31:36;10.80;99.90
52565;DHT22;38460;53.106;7.004;2023-05-07T07:34:01;10.80;99.90
52565;DHT22;38460;53.106;7.004;2023-05-07T07:36:27;10.80;99.90
52565;DHT22;38460;53.106;7.004;2023-05-07T07:38:53;10.90;99.90
52565;DHT22;38460;53.106;7.004;2023-05-07T07:41:19;10.90;99.90
52565;DHT22;38460;53.106;7.004;2023-05-07T07:43:45;11.00;99.90
52565;DHT22;38460;53.106;7.004;2023-05-07T07:46:12;11.00;99.90
52565;DHT22;38460;53.106;7.004;2023-05-07T07:48:38;11.00;99.90
52565;DHT22;38460;53.106;7.004;2023-05-07T07:51:04;11.10;99.90
52565;DHT22;38460;53.106;7.004;2023-05-07T07:53:30;11.10;99.90
52565;DHT22;38460;53.106;7.004;2023-05-07T07:55:56;11.10;99.90
52565;DHT22;38460;53.106;7.004;2023-05-07T07:58:22;11.10;99.90
52565;DHT22;38460;53.106;7.004;2023-05-07T08:00:48;11.20;99.90
52565;DHT22;38460;53.106;7.004;2023-05-07T08:03:14;11.20;99.90
52565;DHT22;38460;53.106;7.004;2023-05-07T08:05:42;11.20;99.90
52565;DHT22;38460;53.106;7.004;2023-05-07T08:08:08;11.30;99.90
52565;DHT22;38460;53.106;7.004;2023-05-07T08:10:34;11.30;99.90
52565;DHT22;38460;53.106;7.004;2023-05-07T08:13:04;11.30;99.90
52565;DHT22;38460;53.106;7.004;2023-05-07T08:15:30;11.30;99.90
52565;DHT22;38460;53.106;7.004;2023-05-07T08:17:56;11.30;99.90
52565;DHT22;38460;53.106;7.004;2023-05-07T08:20:25;11.40;99.90
52565;DHT22;38460;53.106;7.004;2023-05-07T08:22:51;11.40;99.90
52565;DHT22;38460;53.106;7.004;2023-05-07T08:25:17;11.40;99.90
52565;DHT22;38460;53.106;7.004;2023-05-07T08:27:43;11.40;99.90
52565;DHT22;38460;53.106;7.004;2023-05-07T08:30:10;11.50;99.90
52565;DHT22;38460;53.106;7.004;2023-05-07T08:32:36;11.60;99.90
52565;DHT22;38460;53.106;7.004;2023-05-07T08:35:02;11.60;99.90
52565;DHT22;38460;53.106;7.004;2023-05-07T08:37:28;11.70;99.90
52565;DHT22;38460;53.106;7.004;2023-05-07T08:39:53;11.70;99.90
52565;DHT22;38460;53.106;7.004;2023-05-07T08:42:20;11.70;99.90
52565;DHT22;38460;53.106;7.004;2023-05-07T08:44:50;11.70;99.90
52565;DHT22;38460;53.106;7.004;2023-05-07T08:47:19;11.80;99.90
52565;DHT22;38460;53.106;7.004;2023-05-07T08:49:46;11.80;99.90
52565;DHT22;38460;53.106;7.004;2023-05-07T08:52:12;11.80;99.90
52565;DHT22;38460;53.106;7.004;2023-05-07T08:54:38;11.90;99.90
52565;DHT22;38460;53.106;7.004;2023-05-07T08:57:04;12.00;99.90
52565;DHT22;38460;53.106;7.004;2023-05-07T08:59:30;12.10;99.90
52565;DHT22;38460;53.106;7.004;2023-05-07T09:01:56;12.10;99.90
52565;DHT22;38460;53.106;7.004;2023-05-07T09:04:22;12.20;99.90
52565;DHT22;38460;53.106;7.004;2023-05-07T09:06:47;12.20;99.90
52565;DHT22;38460;53.106;7.004;2023-05-07T09:09:17;12.30;99.90
52565;DHT22;38460;53.106;7.004;2023-05-07T09:11:46;12.30;99.90
52565;DHT22;38460;53.106;7.004;2023-05-07T09:14:11;12.40;99.90
52565;DHT22;38460;53.106;7.004;2023-05-07T09:16:37;12.40;99.90
52565;DHT22;38460;53.106;7.004;2023-05-07T09:19:03;12.40;99.90
52565;DHT22;38460;53.106;7.004;2023-05-07T09:21:28;12.50;99.90
52565;DHT22;38460;53.106;7.004;2023-05-07T09:23:55;12.50;99.90
52565;DHT22;38460;53.106;7.004;2023-05-07T09:26:22;12.60;99.90
52565;DHT22;38460;53.106;7.004;2023-05-07T09:28:48;12.60;99.90
52565;DHT22;38460;53.106;7.004;2023-05-07T09:31:13;12.60;99.90
52565;DHT22;38460;53.106;7.004;2023-05-07T09:33:39;12.70;99.90
52565;DHT22;38460;53.106;7.004;2023-05-07T09:36:06;12.80;99.90
52565;DHT22;38460;53.106;7.004;2023-05-07T09:38:36;12.80;99.90
52565;DHT22;38460;53.106;7.004;2023-05-07T09:41:09;12.80;99.90
52565;DHT22;38460;53.106;7.004;2023-05-07T09:43:37;12.80;99.90
52565;DHT22;38460;53.106;7.004;2023-05-07T09:46:06;12.90;99.90
52565;DHT22;38460;53.106;7.004;2023-05-07T09:48:37;12.90;99.90
52565;DHT22;38460;53.106;7.004;2023-05-07T09:51:18;13.00;99.90
52565;DHT22;38460;53.106;7.004;2023-05-07T09:53:48;13.10;99.90
52565;DHT22;38460;53.106;7.004;2023-05-07T09:56:16;13.10;99.90
52565;DHT22;38460;53.106;7.004;2023-05-07T09:58:43;13.20;99.90
52565;DHT22;38460;53.106;7.004;2023-05-07T10:01:11;13.30;99.90
52565;DHT22;38460;53.106;7.004;2023-05-07T10:03:40;13.30;99.90
52565;DHT22;38460;53.106;7.004;2023-05-07T10:06:08;13.30;99.90
52565;DHT22;38460;53.106;7.004;2023-05-07T10:08:35;13.30;99.90
52565;DHT22;38460;53.106;7.004;2023-05-07T10:11:01;13.30;99.90
52565;DHT22;38460;53.106;7.004;2023-05-07T10:13:28;13.30;99.90
52565;DHT22;38460;53.106;7.004;2023-05-07T10:15:55;13.40;99.90
52565;DHT22;38460;53.106;7.004;2023-05-07T10:18:22;13.40;99.90
52565;DHT22;38460;53.106;7.004;2023-05-07T10:20:51;13.50;99.90
52565;DHT22;38460;53.106;7.004;2023-05-07T10:23:23;13.50;99.90
52565;DHT22;38460;53.106;7.004;2023-05-07T10:25:50;13.50;99.90
52565;DHT22;38460;53.106;7.004;2023-05-07T10:28:16;13.50;99.90
52565;DHT22;38460;53.106;7.004;2023-05-07T10:33:24;13.70;99.90
52565;DHT22;38460;53.106;7.004;2023-05-07T10:35:51;13.90;99.90
52565;DHT22;38460;53.106;7.004;2023-05-07T10:38:21;14.10;99.90
52565;DHT22;38460;53.106;7.004;2023-05-07T10:40:46;14.10;99.90
52565;DHT22;38460;53.106;7.004;2023-05-07T10:43:12;14.20;99.90
52565;DHT22;38460;53.106;7.004;2023-05-07T10:45:38;14.30;99.90
52565;DHT22;38460;53.106;7.004;2023-05-07T10:50:37;14.40;99.90
52565;DHT22;38460;53.106;7.004;2023-05-07T10:55:48;14.40;99.90
52565;DHT22;38460;53.106;7.004;2023-05-07T10:58:30;14.50;99.90
52565;DHT22;38460;53.106;7.004;2023-05-07T11:01:02;14.60;99.90
52565;DHT22;38460;53.106;7.004;2023-05-07T11:03:28;14.70;99.90
52565;DHT22;38460;53.106;7.004;2023-05-07T11:08:55;14.90;99.90
52565;DHT22;38460;53.106;7.004;2023-05-07T11:11:44;15.00;99.90
52565;DHT22;38460;53.106;7.004;2023-05-07T11:14:10;15.10;99.90
52565;DHT22;38460;53.106;7.004;2023-05-07T11:16:36;15.10;99.90
52565;DHT22;38460;53.106;7.004;2023-05-07T11:19:03;15.20;99.90
52565;DHT22;38460;53.106;7.004;2023-05-07T11:21:41;15.20;99.90
52565;DHT22;38460;53.106;7.004;2023-05-07T11:24:10;15.30;99.90
52565;DHT22;38460;53.106;7.004;2023-05-07T11:26:49;15.30;99.90
52565;DHT22;38460;53.106;7.004;2023-05-07T11:29:25;15.30;99.90
52565;DHT22;38460;53.106;7.004;2023-05-07T11:31:53;15.40;99.90
52565;DHT22;38460;53.106;7.004;2023-05-07T11:34:24;15.60;99.90
52565;DHT22;38460;53.106;7.004;2023-05-07T11:36:50;15.80;99.90
52565;DHT22;38460;53.106;7.004;2023-05-07T11:39:30;16.00;99.90
52565;DHT22;38460;53.106;7.004;2023-05-07T11:42:01;16.20;99.90
52565;DHT22;38460;53.106;7.004;2023-05-07T11:44:44;16.30;99.90
52565;DHT22;38460;53.106;7.004;2023-05-07T11:47:11;16.30;99.90
52565;DHT22;38460;53.106;7.004;2023-05-07T11:49:42;16.40;99.90
52565;DHT22;38460;53.106;7.004;2023-05-07T11:52:08;16.50;99.90
52565;DHT22;38460;53.106;7.004;2023-05-07T11:54:39;16.50;99.90
52565;DHT22;38460;53.106;7.004;2023-05-07T11:57:05;16.60;99.90
52565;DHT22;38460;53.106;7.004;2023-05-07T11:59:39;16.50;99.90
52565;DHT22;38460;53.106;7.004;2023-05-07T12:02:10;16.50;99.90
52565;DHT22;38460;53.106;7.004;2023-05-07T12:04:37;16.60;99.90
52565;DHT22;38460;53.106;7.004;2023-05-07T12:07:03;16.70;99.90
52565;DHT22;38460;53.106;7.004;2023-05-07T12:09:29;16.90;99.90
52565;DHT22;38460;53.106;7.004;2023-05-07T12:11:55;17.00;99.90
52565;DHT22;38460;53.106;7.004;2023-05-07T12:14:21;17.00;99.90
52565;DHT22;38460;53.106;7.004;2023-05-07T12:16:47;16.90;99.90
52565;DHT22;38460;53.106;7.004;2023-05-07T12:19:13;16.80;99.90
52565;DHT22;38460;53.106;7.004;2023-05-07T12:21:40;16.80;99.90
52565;DHT22;38460;53.106;7.004;2023-05-07T12:24:06;16.80;99.90
52565;DHT22;38460;53.106;7.004;2023-05-07T12:26:32;16.70;99.90
52565;DHT22;38460;53.106;7.004;2023-05-07T12:28:58;16.80;99.90
52565;DHT22;38460;53.106;7.004;2023-05-07T12:31:26;16.80;99.90
52565;DHT22;38460;53.106;7.004;2023-05-07T12:33:52;16.90;99.90
52565;DHT22;38460;53.106;7.004;2023-05-07T12:36:18;16.90;99.90
52565;DHT22;38460;53.106;7.004;2023-05-07T12:38:44;17.10;99.90
52565;DHT22;38460;53.106;7.004;2023-05-07T12:41:10;17.10;99.90
52565;DHT22;38460;53.106;7.004;2023-05-07T12:43:37;17.20;99.90
52565;DHT22;38460;53.106;7.004;2023-05-07T12:46:05;17.20;99.90
52565;DHT22;38460;53.106;7.004;2023-05-07T12:48:32;17.30;99.90
52565;DHT22;38460;53.106;7.004;2023-05-07T12:50:59;17.30;99.90
52565;DHT22;38460;53.106;7.004;2023-05-07T12:53:27;17.30;99.90
52565;DHT22;38460;53.106;7.004;2023-05-07T12:55:57;17.50;99.90
52565;DHT22;38460;53.106;7.004;2023-05-07T12:58:32;17.70;99.90
52565;DHT22;38460;53.106;7.004;2023-05-07T13:01:04;17.90;99.90
52565;DHT22;38460;53.106;7.004;2023-05-07T13:03:31;18.00;99.90
52565;DHT22;38460;53.106;7.004;2023-05-07T13:05:59;18.00;99.90
52565;DHT22;38460;53.106;7.004;2023-05-07T13:08:27;18.10;99.90
52565;DHT22;38460;53.106;7.004;2023-05-07T13:10:53;18.20;99.90
52565;DHT22;38460;53.106;7.004;2023-05-07T13:13:20;18.40;99.90
52565;DHT22;38460;53.106;7.004;2023-05-07T13:15:47;18.60;99.90
52565;DHT22;38460;53.106;7.004;2023-05-07T13:18:13;18.80;99.90
52565;DHT22;38460;53.106;7.004;2023-05-07T13:20:38;19.00;99.90
52565;DHT22;38460;53.106;7.004;2023-05-07T13:23:04;19.00;99.90
52565;DHT22;38460;53.106;7.004;2023-05-07T13:25:30;19.20;99.90
52565;DHT22;38460;53.106;7.004;2023-05-07T13:27:59;19.40;99.90
52565;DHT22;38460;53.106;7.004;2023-05-07T13:30:25;19.50;99.90
52565;DHT22;38460;53.106;7.004;2023-05-07T13:32:53;19.40;99.90
52565;DHT22;38460;53.106;7.004;2023-05-07T13:35:20;19.50;99.90
52565;DHT22;38460;53.106;7.004;2023-05-07T13:37:46;19.60;99.90
52565;DHT22;38460;53.106;7.004;2023-05-07T13:40:13;19.70;99.90
52565;DHT22;38460;53.106;7.004;2023-05-07T13:42:39;19.80;99.90
52565;DHT22;38460;53.106;7.004;2023-05-07T13:45:05;19.90;99.90
52565;DHT22;38460;53.106;7.004;2023-05-07T13:47:31;20.00;99.90
52565;DHT22;38460;53.106;7.004;2023-05-07T13:49:57;20.10;99.90
52565;DHT22;38460;53.106;7.004;2023-05-07T13:52:22;20.10;99.90
52565;DHT22;38460;53.106;7.004;2023-05-07T13:54:48;20.10;99.90
52565;DHT22;38460;53.106;7.004;2023-05-07T13:57:14;20.20;99.90
52565;DHT22;38460;53.106;7.004;2023-05-07T13:59:40;20.30;99.90
52565;DHT22;38460;53.106;7.004;2023-05-07T14:02:06;20.50;99.90
52565;DHT22;38460;53.106;7.004;2023-05-07T14:04:32;20.70;99.90
52565;DHT22;38460;53.106;7.004;2023-05-07T14:06:58;20.80;99.90
52565;DHT22;38460;53.106;7.004;2023-05-07T14:09:23;20.60;99.90
52565;DHT22;38460;53.106;7.004;2023-05-07T14:11:49;20.60;99.90
52565;DHT22;38460;53.106;7.004;2023-05-07T14:14:19;20.50;99.90
52565;DHT22;38460;53.106;7.004;2023-05-07T14:16:45;20.50;99.90
52565;DHT22;38460;53.106;7.004;2023-05-07T14:19:12;20.60;99.90
52565;DHT22;38460;53.106;7.004;2023-05-07T14:21:37;20.70;99.90
52565;DHT22;38460;53.106;7.004;2023-05-07T14:24:05;20.70;99.90
52565;DHT22;38460;53.106;7.004;2023-05-07T14:26:32;20.70;99.90
52565;DHT22;38460;53.106;7.004;2023-05-07T14:28:57;20.90;99.90
52565;DHT22;38460;53.106;7.004;2023-05-07T14:31:24;21.00;99.90
52565;DHT22;38460;53.106;7.004;2023-05-07T14:33:50;21.10;99.90
52565;DHT22;38460;53.106;7.004;2023-05-07T14:36:17;21.10;99.90
52565;DHT22;38460;53.106;7.004;2023-05-07T14:38:46;21.20;99.90
52565;DHT22;38460;53.106;7.004;2023-05-07T14:41:11;21.20;99.90
52565;DHT22;38460;53.106;7.004;2023-05-07T14:43:37;21.20;99.90
52565;DHT22;38460;53.106;7.004;2023-05-07T14:46:03;21.20;99.90
52565;DHT22;38460;53.106;7.004;2023-05-07T14:48:29;21.00;99.90
52565;DHT22;38460;53.106;7.004;2023-05-07T14:50:54;21.00;99.90
52565;DHT22;38460;53.106;7.004;2023-05-07T14:53:22;21.00;99.90
52565;DHT22;38460;53.106;7.004;2023-05-07T14:55:48;21.20;99.90
52565;DHT22;38460;53.106;7.004;2023-05-07T14:58:14;21.30;99.90
52565;DHT22;38460;53.106;7.004;2023-05-07T15:00:40;21.20;99.90
52565;DHT22;38460;53.106;7.004;2023-05-07T15:03:09;21.20;99.90
52565;DHT22;38460;53.106;7.004;2023-05-07T15:05:36;21.30;99.90
52565;DHT22;38460;53.106;7.004;2023-05-07T15:08:02;21.40;99.90
52565;DHT22;38460;53.106;7.004;2023-05-07T15:10:28;21.50;99.90
52565;DHT22;38460;53.106;7.004;2023-05-07T15:12:54;21.40;99.90
52565;DHT22;38460;53.106;7.004;2023-05-07T15:15:20;21.40;99.90
52565;DHT22;38460;53.106;7.004;2023-05-07T15:17:46;21.20;99.90
52565;DHT22;38460;53.106;7.004;2023-05-07T15:20:11;21.10;99.90
52565;DHT22;38460;53.106;7.004;2023-05-07T15:22:37;20.90;99.90
52565;DHT22;38460;53.106;7.004;2023-05-07T15:25:04;20.70;99.90
52565;DHT22;38460;53.106;7.004;2023-05-07T15:27:30;20.60;99.90
52565;DHT22;38460;53.106;7.004;2023-05-07T15:29:57;20.40;99.90
52565;DHT22;38460;53.106;7.004;2023-05-07T15:32:23;20.30;99.90
52565;DHT22;38460;53.106;7.004;2023-05-07T15:34:48;20.10;99.90
52565;DHT22;38460;53.106;7.004;2023-05-07T15:37:14;20.00;99.90